Flight Track Log - Related Links

Times and Time Zones

All times are in EDT time to prevent confusion due to time zone crossing. See the SAS2710 flight status page for this flight to view local times or setup timezone preferences in your user account.

Time Position Orientation Groundspeed Altitude Reporting Facility
EDT Latitude Longitude Course Direction KTS MPH feet Rate Location/Type
Tue 05:00:00 PM 55.8702 13.0627 42° Northeast  Level Estimated
Tue 05:01:00 PM 55.9540 13.1995 42° Northeast  Level Estimated
Tue 05:02:00 PM 56.0376 13.3368 43° Northeast  Level Estimated
Tue 05:03:00 PM 56.1211 13.4748 43° Northeast  Level Estimated
Tue 05:04:00 PM 56.2045 13.6133 43° Northeast  Level Estimated
Tue 05:05:00 PM 56.2877 13.7525 43° Northeast  Level Estimated
Tue 05:06:00 PM 56.3707 13.8922 43° Northeast  Level Estimated
Tue 05:07:00 PM 56.4535 14.0326 43° Northeast  Level Estimated
Tue 05:08:00 PM 56.5363 14.1736 43° Northeast  Level Estimated
Tue 05:09:00 PM 56.6188 14.3152 43° Northeast  Level Estimated
Tue 05:10:00 PM 56.7012 14.4574 43° Northeast  Level Estimated
Tue 05:11:00 PM 56.7834 14.6002 44° Northeast  Level Estimated
Tue 05:12:00 PM 56.8655 14.7437 44° Northeast  Level Estimated
Tue 05:13:00 PM 56.9473 14.8878 44° Northeast  Level Estimated
Tue 05:14:00 PM 57.0291 15.0325 44° Northeast  Level Estimated
Tue 05:15:00 PM 57.1106 15.1779 44° Northeast  Level Estimated
Tue 05:16:00 PM 57.1920 15.3239 44° Northeast  Level Estimated
Tue 05:17:00 PM 57.2733 15.4705 44° Northeast  Level Estimated
Tue 05:18:00 PM 57.3543 15.6179 44° Northeast  Level Estimated
Tue 05:19:00 PM 57.4352 15.7658 45° Northeast  Level Estimated
Tue 05:20:00 PM 57.5159 15.9144 45° Northeast  Level Estimated
Tue 05:21:00 PM 57.5964 16.0637 45° Northeast  Level Estimated
Tue 05:22:00 PM 57.6768 16.2136 45° Northeast  Level Estimated
Tue 05:23:00 PM 57.7569 16.3642 45° Northeast  Level Estimated
Tue 05:24:00 PM 57.8369 16.5154 45° Northeast  Level Estimated
Tue 05:25:00 PM 57.9167 16.6674 45° Northeast  Level Estimated
Tue 05:26:00 PM 57.9964 16.8200 45° Northeast  Level Estimated
Tue 05:27:00 PM 58.0758 16.9733 46° Northeast  Level Estimated
Tue 05:28:00 PM 58.1551 17.1273 46° Northeast  Level Estimated
Tue 05:29:00 PM 58.2341 17.2819 46° Northeast  Level Estimated
Tue 05:30:00 PM 58.3130 17.4373 46° Northeast  Level Estimated
Tue 05:31:00 PM 58.4051 17.6199 46° Northeast  Level Estimated
Tue 05:32:00 PM 58.4968 17.8034 46° Northeast  Level Estimated
Tue 05:33:00 PM 58.5884 17.9879 46° Northeast  Level Estimated
Tue 05:34:00 PM 58.6796 18.1734 47° Northeast  Level Estimated
Tue 05:35:00 PM 58.7706 18.3599 47° Northeast  Level Estimated
Tue 05:36:00 PM 58.8613 18.5473 47° Northeast  Level Estimated
Tue 05:37:00 PM 58.9518 18.7358 47° Northeast  Level Estimated
Tue 05:38:00 PM 59.0419 18.9252 47° Northeast  Level Estimated
Tue 05:39:00 PM 59.1318 19.1156 47° Northeast  Level Estimated
Tue 05:40:00 PM 59.2214 19.3070 48° Northeast  Level Estimated
Tue 05:41:00 PM 59.3107 19.4994 48° Northeast  Level Estimated
Tue 05:42:00 PM 59.3998 19.6928 48° Northeast  Level Estimated
Tue 05:43:00 PM 59.4885 19.8873 48° Northeast  Level Estimated
Tue 05:44:00 PM 59.5770 20.0827 48° Northeast  Level Estimated
Tue 05:45:00 PM 59.6652 20.2792 48° Northeast  Level Estimated
Tue 05:46:00 PM 59.7530 20.4767 49° Northeast  Level Estimated
Tue 05:47:00 PM 59.8406 20.6753 49° Northeast  Level Estimated
Tue 05:48:00 PM 59.9279 20.8749 49° Northeast  Level Estimated
Tue 05:49:00 PM 60.0149 21.0756 49° Northeast  Level Estimated
Tue 05:50:00 PM 60.1015 21.2773 49° Northeast  Level Estimated
Tue 05:51:00 PM 60.1879 21.4801 49° Northeast  Level Estimated
Tue 05:52:00 PM 60.2739 21.6840 50° Northeast  Level Estimated
Tue 05:53:00 PM 60.3597 21.8889 50° Northeast  Level Estimated
Tue 05:54:00 PM 60.4451 22.0949 50° Northeast  Level Estimated
Tue 05:55:00 PM 60.5141 22.2628 50° Northeast  Level Estimated
Tue 05:56:00 PM 60.5141 22.2628 334° Northwest  Level Estimated
Tue 05:57:00 PM 60.5141 22.2628 334° Northwest  Level Estimated
Tue 05:58:00 PM 60.5141 22.2628 334° Northwest  Level Estimated
Tue 05:59:00 PM 60.5141 22.2628 334° Northwest  Level Estimated
Tue 06:00:00 PM 60.5141 22.2628 334° Northwest  Level Estimated
Tue 06:01:00 PM 60.5141 22.2628 334° Northwest  Level Estimated
Tue 06:02:00 PM 60.5141 22.2628 334° Northwest  Level Estimated
Tue 06:03:00 PM 60.5141 22.2628 334° Northwest  Level Estimated
Tue 06:04:00 PM 60.5141 22.2628 334° Northwest  Level Estimated
Tue 06:05:00 PM 60.5141 22.2628 334° Northwest  Level Estimated
Tue 06:06:00 PM 60.5141 22.2628 334° Northwest  Level Estimated

Login

Don't have an account? Register now (free) for customized features, flight alerts, and more!